Time;durP1;ratioP1;P1;durP2;ratioP2;P2;SDS_P1;SDS_P2;PMS_P1;PMS_P2;Temp;Humidity;BMP_temperature;BMP_pressure;BME280_temperature;BME280_humidity;BME280_pressure;Samples;Min_cycle;Max_cycle;Signal;HPM_P1;HPM_P2
2024/04/22 00:00:32;;;;;;;4.43;2.88;;;4.50;99.90;;;;;;5348998;26;20348;-50
2024/04/22 00:02:57;;;;;;;4.80;2.63;;;4.40;99.90;;;;;;5379585;26;20000;-57
2024/04/22 00:05:23;;;;;;;3.45;2.65;;;4.40;99.90;;;;;;5397827;21;20015;-43
2024/04/22 00:07:48;;;;;;;3.58;3.00;;;4.40;99.90;;;;;;5380347;26;19993;-44
2024/04/22 00:10:14;;;;;;;2.83;2.60;;;4.40;99.90;;;;;;5380033;26;19992;-44
2024/04/22 00:12:39;;;;;;;7.53;4.43;;;4.30;99.90;;;;;;5378384;26;20470;-46
2024/04/22 00:15:05;;;;;;;4.10;3.33;;;4.30;99.90;;;;;;5366185;26;20005;-44
2024/04/22 00:17:31;;;;;;;6.32;2.53;;;4.30;99.90;;;;;;5343549;26;19989;-44
2024/04/22 00:19:58;;;;;;;4.28;2.65;;;4.30;99.90;;;;;;5345254;26;20066;-45
2024/04/22 00:22:24;;;;;;;2.63;2.40;;;4.20;99.90;;;;;;5344754;26;19993;-44
2024/04/22 00:24:49;;;;;;;3.78;2.90;;;4.20;99.90;;;;;;5343266;26;20463;-44
2024/04/22 00:27:15;;;;;;;4.25;3.00;;;4.20;99.90;;;;;;5345080;26;20000;-45
2024/04/22 00:29:40;;;;;;;2.97;2.70;;;4.20;99.90;;;;;;5344938;26;20025;-44
2024/04/22 00:32:06;;;;;;;3.72;3.10;;;4.10;99.90;;;;;;5344639;26;20071;-44
2024/04/22 00:34:31;;;;;;;2.83;2.55;;;4.10;99.90;;;;;;5343126;26;19992;-44
2024/04/22 00:36:57;;;;;;;4.57;3.10;;;4.10;99.90;;;;;;5345052;26;19996;-44
2024/04/22 00:39:22;;;;;;;2.72;2.53;;;4.00;99.90;;;;;;5343308;26;20008;-48
2024/04/22 00:41:48;;;;;;;6.35;2.90;;;4.10;99.90;;;;;;5345630;26;20451;-44
2024/04/22 00:44:13;;;;;;;3.28;2.97;;;4.10;99.90;;;;;;5343642;26;20031;-44
2024/04/22 00:46:39;;;;;;;4.32;3.20;;;4.10;99.90;;;;;;5345380;26;20343;-48
2024/04/22 00:49:05;;;;;;;2.90;2.60;;;4.10;99.90;;;;;;5344893;26;20032;-46
2024/04/22 00:51:32;;;;;;;5.57;2.75;;;4.00;99.90;;;;;;5343042;26;20190;-45
2024/04/22 00:53:58;;;;;;;4.78;3.25;;;4.00;99.90;;;;;;5344980;26;20413;-46
2024/04/22 00:56:28;;;;;;;2.70;2.50;;;4.00;99.90;;;;;;5344966;26;19996;-48
2024/04/22 00:58:56;;;;;;;7.75;2.55;;;4.00;99.90;;;;;;5344624;26;19997;-43
2024/04/22 01:01:23;;;;;;;4.07;3.22;;;4.00;99.90;;;;;;5344154;26;20066;-45
2024/04/22 01:03:49;;;;;;;3.28;2.40;;;4.00;99.90;;;;;;5344529;26;20007;-46
2024/04/22 01:06:15;;;;;;;4.60;2.80;;;4.00;99.90;;;;;;5344742;26;19996;-44
2024/04/22 01:08:41;;;;;;;3.72;2.78;;;4.00;99.90;;;;;;5342740;26;20004;-46
2024/04/22 01:11:06;;;;;;;3.75;2.75;;;3.90;99.90;;;;;;5343948;26;20001;-46
2024/04/22 01:13:32;;;;;;;5.40;3.15;;;4.00;99.90;;;;;;5342590;26;19993;-49
2024/04/22 01:15:57;;;;;;;4.47;3.03;;;3.90;99.90;;;;;;5344397;26;20007;-46
2024/04/22 01:18:23;;;;;;;3.67;3.47;;;3.90;99.90;;;;;;5342895;26;19993;-49
2024/04/22 01:20:48;;;;;;;3.83;2.60;;;3.90;99.90;;;;;;5342098;26;19997;-47
2024/04/22 01:23:13;;;;;;;6.25;3.20;;;3.80;99.90;;;;;;5344311;26;20538;-46
2024/04/22 01:25:42;;;;;;;3.88;2.60;;;3.90;99.90;;;;;;5344661;26;20356;-48
2024/04/22 01:28:08;;;;;;;3.95;2.72;;;3.80;99.90;;;;;;5347844;26;19988;-49
2024/04/22 01:30:34;;;;;;;3.80;3.38;;;3.70;99.90;;;;;;5347290;26;20553;-46
2024/04/22 01:33:00;;;;;;;4.40;2.78;;;3.70;99.90;;;;;;5347311;26;20001;-45
2024/04/22 01:35:25;;;;;;;2.97;2.70;;;3.60;99.90;;;;;;5347365;26;20337;-46
2024/04/22 01:37:51;;;;;;;2.60;2.28;;;3.60;99.90;;;;;;5347456;26;20148;-45
2024/04/22 01:40:16;;;;;;;2.83;2.55;;;3.70;99.90;;;;;;5347579;26;19997;-47
2024/04/22 01:42:42;;;;;;;2.90;2.58;;;3.60;99.90;;;;;;5345201;26;20005;-45
2024/04/22 01:45:08;;;;;;;2.70;2.50;;;3.70;99.90;;;;;;5347441;26;20003;-45
2024/04/22 01:47:34;;;;;;;5.30;3.28;;;3.70;99.90;;;;;;5347829;26;20004;-45
2024/04/22 01:50:00;;;;;;;10.40;3.55;;;3.80;99.90;;;;;;5347991;26;19992;-49
2024/04/22 01:52:25;;;;;;;4.43;2.95;;;3.70;99.90;;;;;;5344921;26;20343;-46
2024/04/22 01:54:51;;;;;;;5.22;3.15;;;3.70;99.90;;;;;;5347185;26;20005;-44
2024/04/22 01:57:16;;;;;;;3.47;3.10;;;3.60;99.90;;;;;;5346612;26;20369;-40
2024/04/22 01:59:42;;;;;;;2.90;2.70;;;3.40;99.90;;;;;;5346861;26;19993;-45
2024/04/22 02:02:07;;;;;;;3.38;3.05;;;3.40;99.90;;;;;;5344892;26;19996;-43
2024/04/22 02:04:33;;;;;;;3.50;3.20;;;3.40;99.90;;;;;;5346934;26;20355;-48
2024/04/22 02:06:58;;;;;;;5.35;3.03;;;3.30;99.90;;;;;;5345181;26;20356;-45
2024/04/22 02:09:24;;;;;;;3.60;3.25;;;3.30;99.90;;;;;;5346983;26;19996;-45
2024/04/22 02:11:53;;;;;;;5.70;3.65;;;3.20;99.90;;;;;;5346538;26;19997;-45
2024/04/22 02:14:18;;;;;;;2.80;2.60;;;3.20;99.90;;;;;;5346849;26;20005;-50
2024/04/22 02:16:46;;;;;;;3.45;3.10;;;3.20;99.90;;;;;;5345406;26;20012;-51
2024/04/22 02:19:11;;;;;;;4.55;3.00;;;3.20;99.90;;;;;;5345073;26;20000;-44
2024/04/22 02:21:37;;;;;;;3.05;2.80;;;3.20;99.90;;;;;;5346244;26;20012;-45
2024/04/22 02:24:02;;;;;;;3.33;2.90;;;3.20;99.90;;;;;;5346701;26;20001;-46
2024/04/22 02:26:28;;;;;;;4.88;3.58;;;3.30;99.90;;;;;;5346698;26;20007;-47
2024/04/22 02:28:53;;;;;;;5.35;3.92;;;3.20;99.90;;;;;;5346544;26;20005;-44
2024/04/22 02:31:20;;;;;;;4.43;3.00;;;3.20;99.90;;;;;;5346286;26;20068;-49
2024/04/22 02:33:46;;;;;;;4.20;3.20;;;3.20;99.90;;;;;;5344766;26;20029;-48
2024/04/22 02:36:12;;;;;;;4.28;2.70;;;3.20;99.90;;;;;;5345528;26;20320;-47
2024/04/22 02:38:38;;;;;;;6.65;3.65;;;3.20;99.90;;;;;;5346417;26;20007;-44
2024/04/22 02:41:03;;;;;;;6.45;3.63;;;3.20;99.90;;;;;;5345867;26;20086;-45
2024/04/22 02:43:29;;;;;;;4.53;3.28;;;3.10;99.90;;;;;;5346348;26;20014;-46
2024/04/22 02:45:54;;;;;;;5.82;3.15;;;3.00;99.90;;;;;;5346545;26;20317;-45
2024/04/22 02:48:20;;;;;;;4.82;3.42;;;3.00;99.90;;;;;;5346306;26;20221;-48
2024/04/22 02:50:45;;;;;;;3.30;3.00;;;3.00;99.90;;;;;;5345982;26;19997;-45
2024/04/22 02:53:11;;;;;;;4.82;3.30;;;2.90;99.90;;;;;;5344708;26;20004;-55
2024/04/22 02:55:36;;;;;;;3.83;3.42;;;2.90;99.90;;;;;;5346310;26;20011;-45
2024/04/22 02:58:02;;;;;;;4.13;3.70;;;2.90;99.90;;;;;;5344085;26;20016;-47
2024/04/22 03:00:28;;;;;;;6.32;3.85;;;2.90;99.90;;;;;;5346013;26;19997;-45
2024/04/22 03:02:54;;;;;;;3.60;3.30;;;2.90;99.90;;;;;;5345657;26;20070;-43
2024/04/22 03:05:20;;;;;;;3.63;3.33;;;3.00;99.90;;;;;;5344289;26;20024;-45
2024/04/22 03:07:45;;;;;;;3.55;3.25;;;3.00;99.90;;;;;;5346085;26;20071;-44
2024/04/22 03:10:11;;;;;;;5.07;3.50;;;3.00;99.90;;;;;;5345715;26;20469;-46
2024/04/22 03:12:37;;;;;;;3.40;3.10;;;3.00;99.90;;;;;;5345439;26;20008;-45
2024/04/22 03:15:03;;;;;;;6.38;3.00;;;2.90;99.90;;;;;;5345821;26;20348;-45
2024/04/22 03:17:28;;;;;;;4.28;3.88;;;3.00;99.90;;;;;;5345651;26;20004;-48
2024/04/22 03:19:54;;;;;;;4.07;3.47;;;3.00;99.90;;;;;;5344086;26;20455;-45
2024/04/22 03:22:20;;;;;;;3.95;3.58;;;3.00;99.90;;;;;;5343648;26;20119;-44
2024/04/22 03:24:46;;;;;;;7.07;4.18;;;2.90;99.90;;;;;;5345605;26;20007;-44
2024/04/22 03:27:12;;;;;;;6.47;3.80;;;3.00;99.90;;;;;;5345741;26;19997;-44
2024/04/22 03:29:37;;;;;;;6.38;3.92;;;3.20;99.90;;;;;;5345831;26;19997;-44
2024/04/22 03:32:03;;;;;;;5.93;4.38;;;3.20;99.90;;;;;;5345791;26;20001;-48
2024/04/22 03:34:29;;;;;;;5.05;4.20;;;3.20;99.90;;;;;;5346515;26;20001;-44
2024/04/22 03:36:54;;;;;;;5.28;4.30;;;3.10;99.90;;;;;;5345984;26;20051;-45
2024/04/22 03:39:20;;;;;;;5.90;4.40;;;3.00;99.90;;;;;;5344112;26;19997;-45
2024/04/22 03:41:45;;;;;;;4.15;3.75;;;2.80;99.90;;;;;;5345097;26;20037;-44
2024/04/22 03:44:11;;;;;;;7.03;4.05;;;2.70;99.90;;;;;;5345335;26;20464;-42
2024/04/22 03:52:05;;;;;;;5.90;3.30;;;2.60;99.90;;;;;;5345203;26;20008;-45
2024/04/22 03:54:31;;;;;;;9.30;3.40;;;2.60;99.90;;;;;;5345160;26;20000;-46
2024/04/22 03:56:56;;;;;;;6.32;4.97;;;2.60;99.90;;;;;;5344798;26;20011;-44
2024/04/22 03:59:22;;;;;;;4.35;3.50;;;2.60;99.90;;;;;;5345474;26;20070;-45
2024/04/22 04:01:47;;;;;;;4.25;3.53;;;2.60;99.90;;;;;;5345072;26;20463;-48
2024/04/22 04:04:13;;;;;;;5.70;4.72;;;2.50;99.90;;;;;;5345073;26;20074;-45
2024/04/22 04:06:38;;;;;;;6.70;4.53;;;2.60;99.90;;;;;;5345266;26;20530;-46
2024/04/22 04:09:04;;;;;;;5.00;4.07;;;2.60;99.90;;;;;;5345055;26;20011;-47
2024/04/22 04:11:36;;;;;;;5.82;4.30;;;2.60;99.90;;;;;;5343174;26;20015;-45
2024/04/22 04:14:02;;;;;;;4.75;3.78;;;2.70;99.90;;;;;;5345423;26;19997;-47
2024/04/22 04:16:27;;;;;;;4.15;3.75;;;2.80;99.90;;;;;;5345091;26;20340;-45
2024/04/22 04:18:53;;;;;;;4.63;4.00;;;2.80;99.90;;;;;;5345263;26;19993;-44
2024/04/22 04:21:19;;;;;;;4.50;4.10;;;2.80;99.90;;;;;;5344660;26;20007;-44
2024/04/22 04:23:44;;;;;;;4.68;3.80;;;2.80;99.90;;;;;;5344986;26;20078;-45
2024/04/22 04:26:10;;;;;;;7.13;3.92;;;2.80;99.90;;;;;;5345035;26;20001;-45
2024/04/22 04:28:35;;;;;;;6.45;4.00;;;2.80;99.90;;;;;;5344943;26;20012;-45
2024/04/22 04:31:01;;;;;;;5.45;4.10;;;2.70;99.90;;;;;;5344623;26;20004;-45
2024/04/22 04:33:27;;;;;;;7.03;5.18;;;2.80;99.90;;;;;;5345172;26;20044;-44
2024/04/22 04:36:01;;;;;;;7.57;4.53;;;2.80;99.90;;;;;;5344886;26;20522;-45
2024/04/22 04:38:27;;;;;;;6.25;4.43;;;2.80;99.90;;;;;;5345052;26;20012;-47
2024/04/22 04:40:53;;;;;;;6.15;3.90;;;2.70;99.90;;;;;;5344560;26;20308;-42
2024/04/22 04:43:18;;;;;;;5.28;4.10;;;2.70;99.90;;;;;;5344782;26;20016;-44
2024/04/22 04:45:44;;;;;;;4.93;3.95;;;2.70;99.90;;;;;;5344670;26;20008;-47
2024/04/22 04:48:10;;;;;;;5.80;4.15;;;2.80;99.90;;;;;;5344686;26;20008;-46
2024/04/22 04:50:35;;;;;;;3.83;3.53;;;3.00;99.90;;;;;;5344623;26;19993;-48
2024/04/22 04:53:01;;;;;;;3.50;3.20;;;3.10;99.90;;;;;;5344439;26;19997;-45
2024/04/22 04:55:26;;;;;;;5.28;4.22;;;3.20;99.90;;;;;;5344620;26;19997;-45
2024/04/22 04:57:52;;;;;;;4.38;3.33;;;3.30;99.90;;;;;;5344199;26;20070;-44
2024/04/22 05:00:18;;;;;;;4.93;3.63;;;3.40;99.90;;;;;;5343760;26;20075;-44
2024/04/22 05:02:43;;;;;;;5.70;3.80;;;3.60;99.90;;;;;;5343931;26;20012;-49
2024/04/22 05:05:09;;;;;;;5.38;4.20;;;3.70;99.90;;;;;;5344363;26;20012;-47
2024/04/22 05:07:34;;;;;;;4.43;4.03;;;4.00;99.90;;;;;;5344573;26;20345;-44
2024/04/22 05:10:00;;;;;;;4.40;4.00;;;4.30;99.90;;;;;;5344451;26;20009;-43
2024/04/22 05:12:25;;;;;;;4.20;3.70;;;4.70;99.90;;;;;;5343789;26;20398;-43
2024/04/22 05:14:51;;;;;;;5.05;3.92;;;5.00;99.90;;;;;;5344131;26;20363;-44
2024/04/22 05:17:16;;;;;;;4.82;4.15;;;5.30;99.90;;;;;;5344098;26;19997;-44
2024/04/22 05:19:42;;;;;;;5.80;3.58;;;5.60;99.90;;;;;;5343965;26;20012;-42
2024/04/22 05:22:07;;;;;;;4.25;3.85;;;5.70;99.90;;;;;;5343493;26;20001;-44
2024/04/22 05:24:33;;;;;;;4.07;3.67;;;5.70;99.90;;;;;;5343946;26;20001;-44
2024/04/22 05:26:58;;;;;;;6.53;3.80;;;5.80;99.90;;;;;;5344190;26;20001;-46
2024/04/22 05:29:24;;;;;;;3.47;3.17;;;6.00;99.90;;;;;;5344061;26;20000;-43
2024/04/22 05:31:50;;;;;;;6.43;3.90;;;;;;;;;;5341889;26;20001;-44
2024/04/22 05:37:01;;;;;;;4.65;3.42;;;6.50;99.90;;;;;;5344002;26;20075;-45
2024/04/22 05:39:28;;;;;;;3.95;3.35;;;6.90;99.90;;;;;;5343806;26;20012;-47
2024/04/22 05:41:54;;;;;;;5.72;3.63;;;7.00;99.90;;;;;;5343412;26;20012;-46
2024/04/22 05:44:19;;;;;;;4.45;3.65;;;7.10;99.90;;;;;;5343610;26;20356;-49
2024/04/22 05:46:45;;;;;;;4.53;4.13;;;7.30;99.90;;;;;;5343877;26;20004;-50
2024/04/22 05:49:10;;;;;;;8.32;4.20;;;7.30;99.90;;;;;;5343535;26;20357;-45
2024/04/22 05:51:36;;;;;;;7.22;4.80;;;7.40;99.90;;;;;;5343208;26;20008;-46
2024/04/22 05:54:06;;;;;;;5.10;3.65;;;7.60;99.90;;;;;;5341864;26;19997;-50
2024/04/22 05:56:32;;;;;;;4.80;3.80;;;7.50;99.90;;;;;;5341669;26;20380;-45
2024/04/22 05:58:57;;;;;;;9.77;3.40;;;7.40;99.90;;;;;;5343700;26;19997;-44
2024/04/22 06:01:23;;;;;;;4.95;3.88;;;7.30;99.90;;;;;;5342827;26;20005;-47
2024/04/22 06:03:48;;;;;;;5.60;4.03;;;7.20;99.90;;;;;;5342833;26;19997;-48
2024/04/22 06:06:14;;;;;;;5.93;3.70;;;7.20;99.90;;;;;;5385637;21;20004;-54
2024/04/22 06:08:39;;;;;;;4.20;3.80;;;7.00;99.90;;;;;;5378403;26;20359;-55
2024/04/22 06:11:05;;;;;;;5.88;4.07;;;7.10;99.90;;;;;;5378476;26;20003;-53
2024/04/22 06:13:31;;;;;;;4.65;4.13;;;7.20;99.90;;;;;;5381817;26;20004;-56
2024/04/22 06:15:57;;;;;;;7.03;4.30;;;7.20;99.90;;;;;;5362357;26;20425;-57
2024/04/22 06:18:22;;;;;;;7.40;3.83;;;7.10;99.90;;;;;;5316408;26;20009;-57
2024/04/22 06:20:48;;;;;;;5.25;3.85;;;7.20;99.90;;;;;;5346380;26;19993;-52
2024/04/22 06:23:13;;;;;;;12.52;4.35;;;7.20;99.90;;;;;;5314933;26;19996;-52
2024/04/22 06:25:39;;;;;;;6.18;3.92;;;7.30;99.90;;;;;;5316127;26;19993;-54
2024/04/22 06:28:05;;;;;;;4.63;3.30;;;7.60;99.90;;;;;;5347190;26;20564;-53
2024/04/22 06:30:30;;;;;;;3.28;2.95;;;7.40;99.90;;;;;;5346607;26;20331;-55
2024/04/22 06:32:56;;;;;;;4.38;3.83;;;7.30;99.90;;;;;;5346064;26;20061;-56
2024/04/22 06:35:22;;;;;;;4.10;3.13;;;7.30;99.90;;;;;;5346504;26;20015;-52
2024/04/22 06:37:48;;;;;;;7.00;3.17;;;7.50;99.90;;;;;;5316082;26;20030;-57
2024/04/22 06:40:14;;;;;;;6.22;2.65;;;8.20;99.90;;;;;;5347130;26;19992;-51
2024/04/22 06:42:39;;;;;;;6.00;3.85;;;8.40;99.90;;;;;;5346244;26;20136;-55
2024/04/22 06:45:05;;;;;;;4.05;3.22;;;8.80;99.90;;;;;;5315964;26;20007;-57
2024/04/22 06:47:31;;;;;;;4.13;3.10;;;9.20;99.90;;;;;;5346598;26;20007;-55
2024/04/22 06:49:56;;;;;;;4.70;3.90;;;9.90;99.40;;;;;;5346425;26;20071;-54
2024/04/22 06:52:22;;;;;;;4.40;3.00;;;10.50;97.80;;;;;;5345498;26;20440;-54
2024/04/22 06:54:47;;;;;;;3.15;2.85;;;10.90;98.00;;;;;;5345885;26;20470;-59
2024/04/22 06:57:13;;;;;;;4.78;3.08;;;11.90;96.50;;;;;;5345338;26;19993;-56
2024/04/22 06:59:38;;;;;;;8.50;2.92;;;12.20;94.20;;;;;;5345717;26;20001;-53
2024/04/22 07:02:04;;;;;;;3.28;2.63;;;11.70;94.70;;;;;;5314651;26;20003;-55
2024/04/22 07:04:30;;;;;;;3.25;2.90;;;12.00;94.50;;;;;;5315054;26;19999;-57
2024/04/22 07:06:55;;;;;;;3.33;2.65;;;13.10;99.90;;;;;;5345861;26;19997;-56
2024/04/22 07:09:21;;;;;;;4.07;2.85;;;13.70;91.90;;;;;;5346020;26;20467;-56
2024/04/22 07:11:46;;;;;;;3.10;2.80;;;14.20;89.40;;;;;;5345048;26;19993;-57
2024/04/22 07:14:13;;;;;;;3.45;2.72;;;14.20;89.80;;;;;;5315206;26;20407;-57
2024/04/22 07:16:40;;;;;;;2.30;2.10;;;14.50;89.40;;;;;;5345753;26;19997;-59
2024/04/22 07:19:06;;;;;;;3.55;2.55;;;14.60;88.40;;;;;;5315577;26;20008;-55
2024/04/22 07:21:32;;;;;;;4.15;2.92;;;14.60;86.70;;;;;;5314928;26;19993;-54
2024/04/22 07:23:58;;;;;;;3.15;2.55;;;13.80;87.90;;;;;;5345856;26;19997;-55
2024/04/22 07:26:23;;;;;;;5.13;2.63;;;13.60;88.30;;;;;;5345906;26;20359;-55
2024/04/22 07:28:51;;;;;;;5.75;2.90;;;13.70;88.60;;;;;;5345702;26;19997;-60
2024/04/22 07:31:17;;;;;;;5.20;2.60;;;14.10;87.30;;;;;;5314520;26;19997;-52
2024/04/22 07:33:43;;;;;;;2.97;2.53;;;14.30;86.70;;;;;;5345602;26;19992;-55
2024/04/22 07:36:30;;;;;;;3.78;2.70;;;15.00;84.80;;;;;;5339496;26;20361;-54
2024/04/22 07:39:02;;;;;;;2.85;2.65;;;15.60;99.10;;;;;;5331331;26;20037;-53
2024/04/22 07:41:28;;;;;;;2.67;2.47;;;15.80;83.50;;;;;;5342403;26;20407;-57
2024/04/22 07:43:54;;;;;;;2.55;2.35;;;15.60;81.70;;;;;;5312215;26;20374;-56
2024/04/22 07:46:21;;;;;;;3.45;2.70;;;15.90;83.50;;;;;;5310790;27;20002;-58
2024/04/22 07:48:46;;;;;;;3.13;2.83;;;16.00;82.80;;;;;;5324644;26;20090;-58
2024/04/22 07:51:12;;;;;;;2.65;2.45;;;15.70;80.70;;;;;;5313851;26;20001;-58
2024/04/22 07:53:38;;;;;;;3.05;2.75;;;15.50;80.90;;;;;;5314677;26;20352;-58
2024/04/22 07:56:14;;;;;;;3.38;2.60;;;15.50;81.50;;;;;;5346317;26;20310;-58
2024/04/22 07:58:40;;;;;;;3.22;2.63;;;15.30;81.60;;;;;;5346344;26;20149;-61
2024/04/22 08:01:06;;;;;;;3.05;2.72;;;15.90;81.80;;;;;;5345988;26;20352;-59
2024/04/22 08:03:32;;;;;;;4.57;3.25;;;;;;;;;;5345349;26;20421;-58
2024/04/22 08:06:05;;;;;;;9.02;3.10;;;;;;;;;;5314690;26;20000;-57
2024/04/22 08:08:32;;;;;;;3.25;2.70;;;15.90;78.30;;;;;;5314690;26;20007;-57
2024/04/22 08:10:59;;;;;;;3.28;2.88;;;15.90;79.80;;;;;;5313856;26;20000;-59
2024/04/22 08:13:24;;;;;;;4.28;3.10;;;15.80;79.40;;;;;;5314406;26;20001;-59
2024/04/22 08:15:50;;;;;;;3.17;2.70;;;15.80;79.50;;;;;;5345492;26;20078;-56
2024/04/22 08:18:17;;;;;;;3.55;2.92;;;15.80;78.70;;;;;;5314823;26;20506;-61
2024/04/22 08:20:42;;;;;;;3.58;3.28;;;15.90;78.90;;;;;;5344996;26;20376;-54
2024/04/22 08:23:08;;;;;;;3.05;2.80;;;16.00;79.10;;;;;;5345006;26;20013;-57
2024/04/22 08:25:34;;;;;;;2.85;2.58;;;17.00;77.50;;;;;;5344951;26;19997;-57
2024/04/22 08:27:59;;;;;;;5.55;3.30;;;17.40;76.90;;;;;;5345340;26;19997;-54
2024/04/22 08:30:26;;;;;;;9.85;3.22;;;;;;;;;;5345140;26;20335;-57
2024/04/22 08:32:51;;;;;;;3.35;3.05;;;16.80;73.60;;;;;;5344563;26;19997;-58
2024/04/22 08:35:17;;;;;;;4.35;3.38;;;;;;;;;;5343710;26;20086;-57
2024/04/22 08:37:43;;;;;;;4.50;3.35;;;16.40;74.90;;;;;;5344928;26;20009;-58
2024/04/22 08:40:10;;;;;;;3.35;2.90;;;16.00;76.30;;;;;;5344907;26;19997;-67
2024/04/22 08:42:38;;;;;;;5.80;2.92;;;16.50;77.00;;;;;;5344598;26;20001;-58
2024/04/22 08:45:06;;;;;;;3.67;3.38;;;15.90;75.80;;;;;;5344634;26;20001;-54
2024/04/22 08:47:32;;;;;;;3.17;2.88;;;15.90;76.20;;;;;;5314167;26;20009;-55
2024/04/22 08:49:58;;;;;;;3.67;3.38;;;14.80;78.80;;;;;;5314081;26;20431;-56
2024/04/22 08:52:23;;;;;;;4.82;2.90;;;15.10;80.10;;;;;;5344028;26;20004;-50
2024/04/22 08:54:49;;;;;;;4.38;3.10;;;15.90;77.00;;;;;;5344193;26;20001;-56
2024/04/22 08:57:15;;;;;;;3.05;2.80;;;16.00;77.90;;;;;;5344410;26;20025;-56
2024/04/22 08:59:40;;;;;;;5.18;3.45;;;15.90;77.40;;;;;;5344771;26;19996;-56
2024/04/22 09:02:06;;;;;;;7.25;2.90;;;15.10;77.80;;;;;;5343476;26;20005;-55
2024/04/22 09:04:32;;;;;;;4.60;3.20;;;15.30;79.10;;;;;;5313385;26;20267;-55
2024/04/22 09:07:00;;;;;;;4.80;3.22;;;15.50;79.70;;;;;;5344094;26;20000;-56
2024/04/22 09:09:27;;;;;;;8.65;4.30;;;15.10;80.20;;;;;;5343759;26;20012;-60
2024/04/22 09:11:52;;;;;;;7.55;4.13;;;15.30;79.20;;;;;;5343563;26;20341;-49
2024/04/22 09:14:18;;;;;;;7.45;3.90;;;15.10;79.10;;;;;;5343900;26;20007;-54
2024/04/22 09:16:44;;;;;;;6.15;3.83;;;14.70;80.10;;;;;;5343510;26;20001;-51
2024/04/22 09:19:10;;;;;;;11.38;4.57;;;14.00;81.00;;;;;;5343601;26;20090;-55
2024/04/22 09:21:38;;;;;;;4.60;3.35;;;13.60;82.60;;;;;;5343097;26;20005;-51
2024/04/22 09:24:09;;;;;;;5.97;3.58;;;13.30;84.20;;;;;;5343658;26;19997;-50
2024/04/22 09:26:36;;;;;;;3.63;3.00;;;;;;;;;;5343746;26;20348;-50
2024/04/22 09:29:03;;;;;;;3.72;3.22;;;12.80;92.80;;;;;;5313292;26;20015;-51
2024/04/22 09:31:32;;;;;;;3.65;3.35;;;12.40;85.30;;;;;;5343195;26;20012;-52
2024/04/22 09:33:59;;;;;;;3.53;3.22;;;12.10;86.80;;;;;;5343242;26;20005;-51
2024/04/22 09:36:26;;;;;;;3.50;3.20;;;11.90;88.50;;;;;;5343431;26;20001;-51
2024/04/22 09:38:53;;;;;;;3.90;2.75;;;12.40;88.00;;;;;;5343420;26;20004;-55
2024/04/22 09:41:20;;;;;;;3.97;3.42;;;12.60;85.70;;;;;;5342831;26;20016;-51
2024/04/22 09:43:50;;;;;;;3.50;2.97;;;12.60;86.20;;;;;;5343436;26;20456;-51
2024/04/22 09:46:17;;;;;;;4.03;3.38;;;11.80;84.80;;;;;;5346074;26;20336;-52
2024/04/22 09:48:44;;;;;;;3.75;3.38;;;11.40;87.20;;;;;;5347067;26;19997;-50
2024/04/22 09:51:10;;;;;;;4.30;2.83;;;11.80;86.30;;;;;;5346268;26;20013;-53
2024/04/22 09:53:37;;;;;;;3.88;2.95;;;12.40;84.80;;;;;;5346877;26;20005;-53
2024/04/22 09:56:06;;;;;;;5.13;3.45;;;12.20;86.40;;;;;;5346656;26;19997;-53
2024/04/22 09:58:34;;;;;;;4.15;2.88;;;11.50;89.40;;;;;;5315770;26;20075;-56
2024/04/22 10:01:00;;;;;;;4.88;3.97;;;11.30;92.10;;;;;;5346248;26;20099;-54
2024/04/22 10:03:27;;;;;;;3.42;3.00;;;10.80;94.10;;;;;;5344483;26;20012;-56
2024/04/22 10:05:56;;;;;;;5.15;2.55;;;10.60;94.50;;;;;;5346870;26;20082;-54
2024/04/22 10:08:22;;;;;;;3.42;3.03;;;10.10;96.60;;;;;;5331332;26;20000;-53
2024/04/22 10:10:47;;;;;;;6.13;4.07;;;10.00;97.40;;;;;;5357642;26;20016;-53
2024/04/22 10:13:14;;;;;;;7.25;2.53;;;9.70;99.30;;;;;;5346708;26;20362;-52
2024/04/22 10:15:40;;;;;;;2.50;2.30;;;9.60;99.90;;;;;;5315969;26;20078;-56
2024/04/22 10:18:14;;;;;;;2.58;2.38;;;9.30;99.90;;;;;;5353996;26;20120;-55
2024/04/22 10:20:41;;;;;;;4.28;2.67;;;9.30;99.90;;;;;;5335553;26;20027;-57
2024/04/22 10:23:07;;;;;;;3.08;2.58;;;9.10;99.90;;;;;;5334599;26;20019;-58
2024/04/22 10:25:33;;;;;;;2.88;2.67;;;8.70;99.90;;;;;;5326880;26;20456;-57
2024/04/22 10:27:59;;;;;;;2.58;2.38;;;8.70;99.90;;;;;;5345854;26;20365;-55
2024/04/22 10:30:34;;;;;;;2.47;2.22;;;8.70;99.90;;;;;;5335944;26;20016;-62
2024/04/22 10:33:00;;;;;;;;;;;8.70;99.90;;;;;;5316009;26;20016;-61
2024/04/22 10:35:26;;;;;;;;;;;8.80;99.90;;;;;;5281597;27;19926;-61
2024/04/22 10:37:51;;;;;;;2.22;2.03;;;8.70;99.90;;;;;;5318030;26;19933;-57
2024/04/22 10:40:17;;;;;;;3.25;2.53;;;8.50;99.90;;;;;;5327133;26;20025;-58
2024/04/22 10:42:42;;;;;;;2.05;1.95;;;8.60;99.90;;;;;;5298551;26;20460;-59
2024/04/22 10:45:08;;;;;;;2.97;2.70;;;8.40;99.90;;;;;;5325130;26;20016;-57
2024/04/22 10:47:34;;;;;;;3.25;2.95;;;8.40;99.90;;;;;;5327642;26;20005;-59
2024/04/22 10:50:00;;;;;;;2.95;2.63;;;8.40;99.90;;;;;;5296597;26;20344;-58
2024/04/22 10:52:25;;;;;;;2.85;2.40;;;8.30;99.90;;;;;;5329146;26;20009;-61
2024/04/22 10:54:51;;;;;;;2.95;2.13;;;8.20;99.90;;;;;;5327759;26;19997;-60
2024/04/22 10:57:18;;;;;;;2.90;1.90;;;8.10;99.90;;;;;;5327081;26;20412;-56
2024/04/22 10:59:43;;;;;;;2.53;2.10;;;7.90;99.90;;;;;;5329765;26;20005;-59
2024/04/22 11:02:10;;;;;;;5.40;3.05;;;7.80;99.90;;;;;;5324314;26;19997;-58
2024/04/22 11:04:38;;;;;;;2.72;1.77;;;7.80;99.90;;;;;;5307151;26;20466;-61
2024/04/22 11:07:04;;;;;;;2.15;1.95;;;7.70;99.90;;;;;;5278237;27;20108;-56
2024/04/22 11:09:31;;;;;;;3.83;1.85;;;7.80;99.90;;;;;;5310289;27;20005;-60
2024/04/22 11:11:56;;;;;;;2.20;2.00;;;7.80;99.90;;;;;;5278467;27;20005;-58
2024/04/22 11:14:22;;;;;;;2.70;2.30;;;7.90;99.90;;;;;;5310802;27;20433;-60
2024/04/22 11:16:57;;;;;;;5.10;2.20;;;8.10;99.90;;;;;;5310718;27;20504;-57
2024/04/22 11:19:22;;;;;;;2.35;2.15;;;8.40;99.90;;;;;;5311152;27;20349;-62
2024/04/22 11:21:48;;;;;;;2.33;1.90;;;8.60;99.90;;;;;;5305741;27;20005;-58
2024/04/22 11:24:13;;;;;;;2.47;2.15;;;8.80;99.90;;;;;;5309466;27;19998;-62
2024/04/22 11:26:41;;;;;;;3.03;2.10;;;9.00;99.90;;;;;;5311314;26;20342;-59
2024/04/22 11:29:10;;;;;;;2.55;2.35;;;9.20;99.90;;;;;;5311384;27;20002;-61
2024/04/22 11:31:39;;;;;;;2.55;2.28;;;9.50;99.90;;;;;;5310878;27;20436;-58
2024/04/22 11:34:09;;;;;;;3.10;2.80;;;9.60;99.90;;;;;;5309483;27;20001;-61
2024/04/22 11:36:35;;;;;;;2.60;2.40;;;9.90;99.90;;;;;;5311116;26;19998;-58
2024/04/22 11:39:14;;;;;;;4.18;3.30;;;10.10;99.90;;;;;;5280741;27;20376;-60
2024/04/22 11:41:40;;;;;;;3.92;3.25;;;10.30;99.90;;;;;;5310503;27;19998;-61
2024/04/22 11:44:06;;;;;;;4.88;3.10;;;10.30;99.90;;;;;;5280740;27;20008;-57
2024/04/22 11:46:32;;;;;;;3.28;1.90;;;10.20;99.90;;;;;;5311293;26;20005;-57
2024/04/22 11:48:58;;;;;;;2.28;1.95;;;10.00;97.40;;;;;;5311500;27;20186;-61
2024/04/22 11:51:23;;;;;;;3.08;2.50;;;9.80;97.80;;;;;;5280584;27;20087;-60
2024/04/22 11:53:49;;;;;;;3.72;2.22;;;9.70;99.90;;;;;;5310662;27;20005;-59
2024/04/22 11:56:15;;;;;;;7.10;3.20;;;10.00;99.90;;;;;;5310679;26;20357;-56
2024/04/22 11:58:41;;;;;;;3.28;3.08;;;10.00;99.90;;;;;;5329338;26;20029;-62
2024/04/22 12:01:06;;;;;;;5.72;3.30;;;10.30;99.90;;;;;;5344466;26;20186;-59
2024/04/22 12:03:32;;;;;;;3.28;2.80;;;10.40;99.00;;;;;;5345009;26;20048;-60
2024/04/22 12:05:57;;;;;;;5.53;4.00;;;10.60;99.90;;;;;;5375949;21;20530;-47
2024/04/22 12:08:23;;;;;;;11.73;6.55;;;10.80;99.50;;;;;;5357128;26;19997;-52
2024/04/22 12:10:48;;;;;;;4.25;3.78;;;11.00;98.10;;;;;;5361211;26;19997;-49
2024/04/22 12:13:14;;;;;;;3.35;2.55;;;10.90;99.50;;;;;;5362164;26;19996;-47
2024/04/22 12:15:39;;;;;;;7.80;5.57;;;10.80;97.80;;;;;;5336483;26;20002;-51
2024/04/22 12:18:05;;;;;;;3.33;3.03;;;10.20;99.00;;;;;;5331214;26;20534;-45
2024/04/22 12:20:31;;;;;;;3.15;2.83;;;10.00;99.40;;;;;;5345333;26;19993;-44
2024/04/22 12:22:56;;;;;;;3.47;3.15;;;9.90;99.20;;;;;;5342830;26;20071;-46
2024/04/22 12:25:22;;;;;;;4.00;3.50;;;9.70;99.90;;;;;;5343400;26;20066;-48
2024/04/22 12:27:47;;;;;;;4.57;2.85;;;9.60;99.90;;;;;;5345628;26;20067;-48
2024/04/22 12:30:13;;;;;;;5.65;3.65;;;9.50;99.90;;;;;;5331193;26;19996;-50
2024/04/22 12:32:39;;;;;;;4.40;3.80;;;9.00;99.90;;;;;;5310496;27;20004;-52
2024/04/22 12:35:04;;;;;;;4.40;4.00;;;9.00;99.90;;;;;;5337256;26;20037;-45
2024/04/22 12:37:31;;;;;;;4.55;3.40;;;9.10;99.90;;;;;;5308099;26;20008;-50
2024/04/22 12:39:56;;;;;;;4.57;3.92;;;9.10;99.90;;;;;;5310043;27;19998;-48
2024/04/22 12:42:22;;;;;;;5.70;4.45;;;9.10;99.90;;;;;;5313154;26;20002;-48
2024/04/22 12:44:47;;;;;;;3.80;3.50;;;9.20;99.90;;;;;;5313027;26;20465;-58
2024/04/22 12:52:52;;;;;;;3.40;3.10;;;9.70;99.90;;;;;;5309787;27;20546;-60
2024/04/22 12:55:17;;;;;;;2.50;2.30;;;9.80;99.90;;;;;;5307511;27;20005;-51
2024/04/22 12:57:43;;;;;;;2.55;2.00;;;10.00;99.90;;;;;;5309160;26;20008;-49
2024/04/22 13:00:12;;;;;;;1.90;1.80;;;9.80;99.90;;;;;;5315283;26;20350;-43
2024/04/22 13:02:39;;;;;;;6.97;4.45;;;9.60;99.90;;;;;;5344164;26;20087;-46